createdAt,value
2019-04-11T01:41:16.731Z,89.90
2019-04-11T01:44:09.841Z,89.50
2019-04-11T01:46:43.102Z,90.00
2019-04-11T01:49:21.836Z,89.20
2019-04-11T01:51:56.477Z,89.20
2019-04-11T01:54:30.707Z,88.70
2019-04-11T01:57:05.433Z,88.40
2019-04-11T01:59:40.150Z,89.20
2019-04-11T02:02:31.175Z,89.80
2019-04-11T02:05:08.379Z,89.70
2019-04-11T02:07:46.956Z,90.00
2019-04-11T02:10:18.932Z,89.30
2019-04-11T02:12:53.180Z,89.70
2019-04-11T02:15:28.152Z,88.10
2019-04-11T02:18:01.621Z,88.80
2019-04-11T02:20:34.646Z,87.50
2019-04-11T02:23:15.145Z,89.20
2019-04-11T04:12:53.755Z,91.10
2019-04-11T04:15:55.872Z,90.80
2019-04-11T04:18:40.270Z,91.30
2019-04-11T04:21:24.638Z,91.10
2019-04-11T04:30:13.100Z,91.90
2019-04-11T04:32:20.757Z,91.00
2019-04-11T04:35:13.249Z,91.40
2019-04-11T04:37:54.626Z,90.90
2019-04-11T04:46:28.048Z,90.80
2019-04-11T04:51:45.699Z,90.10
2019-04-11T04:54:32.660Z,90.10
2019-04-11T04:59:57.821Z,90.10
2019-04-11T05:05:46.441Z,89.20
2019-04-11T05:08:27.097Z,87.30
2019-04-11T05:11:09.210Z,89.00
2019-04-11T05:13:54.315Z,88.80
2019-04-11T05:16:35.604Z,86.90
2019-04-11T05:19:17.464Z,88.20
2019-04-11T05:21:52.597Z,86.90
2019-04-11T08:41:07.279Z,93.90
2019-04-11T08:43:41.491Z,94.20
2019-04-11T08:46:20.550Z,94.20
2019-04-11T08:49:13.379Z,94.20
2019-04-11T08:51:47.865Z,94.10
2019-04-11T08:54:23.734Z,94.40
2019-04-11T08:57:07.953Z,94.50
2019-04-11T08:59:35.812Z,94.70
2019-04-11T09:02:09.355Z,94.80
2019-04-11T09:05:05.195Z,94.80
2019-04-11T09:07:34.176Z,95.00
2019-04-11T09:10:29.180Z,95.30
2019-04-11T09:13:13.739Z,95.20
2019-04-11T09:15:59.669Z,95.30
2019-04-11T09:18:32.850Z,95.10
2019-04-11T09:21:10.544Z,95.20
2019-04-11T09:23:44.372Z,95.20
2019-04-11T09:26:35.989Z,95.30
2019-04-11T09:29:13.596Z,95.60
2019-04-11T09:31:51.653Z,95.60
2019-04-11T09:34:30.056Z,95.50
2019-04-11T09:37:06.746Z,95.40
2019-04-11T09:39:41.490Z,95.60
2019-04-11T09:42:19.809Z,95.80
2019-04-11T09:45:17.792Z,95.90
2019-04-11T09:48:08.516Z,96.20
2019-04-11T09:50:53.395Z,96.10
2019-04-11T09:53:28.272Z,96.30
2019-04-11T09:56:06.841Z,96.20
2019-04-11T09:58:40.081Z,96.10
2019-04-11T10:01:50.248Z,96.30
2019-04-11T10:04:27.812Z,96.40
2019-04-11T10:07:17.306Z,96.70
2019-04-11T10:10:04.608Z,96.30
2019-04-11T10:12:42.605Z,96.50
2019-04-11T10:15:18.875Z,96.60
2019-04-11T10:37:40.164Z,96.80
2019-04-11T10:40:24.499Z,96.90
2019-04-11T10:42:58.226Z,97.00
2019-04-11T10:45:42.670Z,97.10
2019-04-11T10:48:16.283Z,96.90
2019-04-11T10:51:06.709Z,97.10
2019-04-11T10:53:41.574Z,97.10
2019-04-11T10:56:22.208Z,97.50
2019-04-11T10:58:55.831Z,97.10
2019-04-11T11:01:46.346Z,97.00
2019-04-11T11:04:21.003Z,96.90
2019-04-11T11:06:55.895Z,96.80
2019-04-11T11:23:29.036Z,97.00
2019-04-11T11:26:07.007Z,97.30
2019-04-11T11:28:44.785Z,97.60
2019-04-11T11:31:22.373Z,97.70
2019-04-11T11:33:56.531Z,97.70
2019-04-11T11:36:34.803Z,97.90
2019-04-11T11:39:17.399Z,98.10
2019-04-11T11:42:08.422Z,98.20
2019-04-11T11:44:44.615Z,98.30
2019-04-11T11:47:38.714Z,98.40
2019-04-11T11:50:18.234Z,98.40
2019-04-11T11:52:57.356Z,98.70
2019-04-11T11:55:38.463Z,98.50
2019-04-11T11:58:25.757Z,98.50
2019-04-11T12:01:08.477Z,98.60
2019-04-11T12:03:40.757Z,98.70
2019-04-11T12:06:19.380Z,98.60
2019-04-11T16:49:25.766Z,99.90
2019-04-11T16:52:18.149Z,99.90
2019-04-11T22:18:51.727Z,99.40
2019-04-11T22:21:24.905Z,99.50
2019-04-11T22:23:58.121Z,98.50
2019-04-11T22:26:31.000Z,98.60
2019-04-11T22:29:04.169Z,98.90
2019-04-11T22:31:37.102Z,98.20
2019-04-11T22:34:12.114Z,98.40
2019-04-11T22:36:45.410Z,98.70
2019-04-11T22:39:19.208Z,98.70
2019-04-11T22:41:55.049Z,98.30
2019-04-11T22:44:28.491Z,98.00
2019-04-11T22:47:01.518Z,97.70
2019-04-11T22:49:36.814Z,97.50
2019-04-11T22:52:11.408Z,96.90
2019-04-11T22:54:43.501Z,96.80
2019-04-11T22:57:16.610Z,96.80
2019-04-11T22:59:50.635Z,96.20
2019-04-11T23:02:30.854Z,96.20
2019-04-11T23:05:04.209Z,96.20
2019-04-11T23:07:37.165Z,96.00
2019-04-11T23:10:10.845Z,95.60
2019-04-11T23:12:45.751Z,95.90
2019-04-11T23:15:18.244Z,95.90
2019-04-11T23:17:51.435Z,95.70
2019-04-11T23:20:25.744Z,95.40
2019-04-11T23:22:58.866Z,95.70
2019-04-11T23:25:32.243Z,94.70
2019-04-11T23:28:05.270Z,94.60
2019-04-11T23:30:38.609Z,95.10
2019-04-11T23:33:11.537Z,94.20
2019-04-11T23:35:44.886Z,94.00
2019-04-11T23:38:18.123Z,94.30
2019-04-11T23:40:51.328Z,94.10
2019-04-11T23:43:24.937Z,93.40
2019-04-11T23:45:58.042Z,92.90
2019-04-11T23:48:31.178Z,93.60
2019-04-11T23:51:04.514Z,93.00
2019-04-11T23:53:37.595Z,93.30
2019-04-11T23:56:10.845Z,92.50
2019-04-11T23:58:44.158Z,93.00
